Time;durP1;ratioP1;P1;durP2;ratioP2;P2;SDS_P1;SDS_P2;PMS_P1;PMS_P2;Temp;Humidity;BMP_temperature;BMP_pressure;BME280_temperature;BME280_humidity;BME280_pressure;Samples;Min_cycle;Max_cycle;Signal;HPM_P1;HPM_P2
2024/01/13 00:01:07;;;;;;;59.53;26.95;;;;;;;;;;5090260;28;20295;-73
2024/01/13 00:03:35;;;;;;;62.50;28.45;;;;;;;;;;5090926;28;20219;-73
2024/01/13 00:06:01;;;;;;;56.20;26.73;;;;;;;;;;5097657;28;20234;-74
2024/01/13 00:08:27;;;;;;;57.45;27.10;;;;;;;;;;5089306;28;20216;-73
2024/01/13 00:10:54;;;;;;;60.97;27.83;;;;;;;;;;5089277;28;20277;-75
2024/01/13 00:13:20;;;;;;;56.72;27.00;;;;;;;;;;5098415;28;20212;-74
2024/01/13 00:15:46;;;;;;;58.38;26.58;;;;;;;;;;5089711;28;20231;-75
2024/01/13 00:18:13;;;;;;;58.60;28.05;;;;;;;;;;5091959;28;20212;-75
2024/01/13 00:20:41;;;;;;;65.97;28.95;;;;;;;;;;5095543;28;20231;-75
2024/01/13 00:23:07;;;;;;;63.90;27.90;;;;;;;;;;5100128;28;20612;-74
2024/01/13 00:25:33;;;;;;;64.45;27.50;;;;;;;;;;5107400;28;20271;-73
2024/01/13 00:28:00;;;;;;;61.65;27.65;;;;;;;;;;5116723;28;20203;-72
2024/01/13 00:30:26;;;;;;;66.82;29.55;;;;;;;;;;5112805;27;20318;-72
2024/01/13 00:32:53;;;;;;;62.50;27.95;;;;;;;;;;5096432;28;20701;-72
2024/01/13 00:35:19;;;;;;;63.63;26.83;;;;;;;;;;5102934;28;20694;-72
2024/01/13 00:37:47;;;;;;;65.78;27.77;;;;;;;;;;5108969;28;20286;-74
2024/01/13 00:40:13;;;;;;;58.85;27.50;;;;;;;;;;5105459;28;20210;-73
2024/01/13 00:42:41;;;;;;;60.97;27.23;;;;;;;;;;5105854;28;20267;-73
2024/01/13 00:45:07;;;;;;;56.00;26.63;;;;;;;;;;5102609;28;20203;-74
2024/01/13 00:47:34;;;;;;;53.92;26.30;;;;;;;;;;5097681;28;20211;-74
2024/01/13 00:50:00;;;;;;;53.85;24.55;;;;;;;;;;5103492;28;20271;-74
2024/01/13 00:52:27;;;;;;;57.08;25.40;;;;;;;;;;5099434;28;20335;-74
2024/01/13 00:54:55;;;;;;;47.25;23.27;;;;;;;;;;5108259;28;20306;-73
2024/01/13 00:57:21;;;;;;;49.40;23.35;;;;;;;;;;5096464;28;20261;-72
2024/01/13 00:59:47;;;;;;;43.70;22.33;;;;;;;;;;5102664;28;20199;-71
2024/01/13 01:02:13;;;;;;;53.42;23.58;;;;;;;;;;5110881;28;20289;-71
2024/01/13 01:04:40;;;;;;;52.08;23.23;;;;;;;;;;5111329;28;20264;-71
2024/01/13 01:07:06;;;;;;;47.30;23.17;;;;;;;;;;5110562;28;20215;-72
2024/01/13 01:09:32;;;;;;;47.10;23.85;;;;;;;;;;5111317;28;20214;-72
2024/01/13 01:12:00;;;;;;;51.58;24.83;;;;;;;;;;5112261;27;20228;-72
2024/01/13 01:14:26;;;;;;;48.70;25.60;;;;;;;;;;5102227;28;20872;-72
2024/01/13 01:16:52;;;;;;;54.35;26.67;;;;;;;;;;5108713;28;20631;-72
2024/01/13 01:19:18;;;;;;;58.63;27.83;;;;;;;;;;5108721;28;20631;-72
2024/01/13 01:21:45;;;;;;;62.28;30.20;;;;;;;;;;5108583;28;20267;-72
2024/01/13 01:24:12;;;;;;;62.63;29.55;;;;;;;;;;5109017;28;20231;-72
2024/01/13 01:26:38;;;;;;;59.83;29.88;;;;;;;;;;5108842;28;20726;-72
2024/01/13 01:29:05;;;;;;;63.28;29.48;;;;;;;;;;5110282;28;20708;-71
2024/01/13 01:31:32;;;;;;;63.13;29.65;;;;;;;;;;5112263;28;20215;-71
2024/01/13 01:33:58;;;;;;;60.88;28.88;;;;;;;;;;5112216;28;20297;-71
2024/01/13 01:36:24;;;;;;;63.58;31.67;;;;;;;;;;5111623;28;20226;-72
2024/01/13 01:38:50;;;;;;;70.68;31.98;;;;;;;;;;5112182;28;20203;-72
2024/01/13 01:41:17;;;;;;;65.40;31.95;;;;;;;;;;5111951;28;20252;-72
2024/01/13 01:43:43;;;;;;;65.82;31.35;;;;;;;;;;5111860;28;20210;-72
2024/01/13 01:46:11;;;;;;;70.78;32.13;;;;;;;;;;5111662;28;20221;-72
2024/01/13 01:48:38;;;;;;;69.78;31.90;;;;;;;;;;5111876;28;20199;-72
2024/01/13 01:51:05;;;;;;;66.75;31.33;;;;;;;;;;5111345;28;20219;-72
2024/01/13 01:53:31;;;;;;;69.47;32.67;;;;;;;;;;5115627;28;20201;-72
2024/01/13 01:55:58;;;;;;;69.22;32.92;;;;;;;;;;5115996;28;20219;-72
2024/01/13 01:58:24;;;;;;;70.45;31.60;;;;;;;;;;5115739;28;20248;-72
2024/01/13 02:00:50;;;;;;;73.13;33.15;;;;;;;;;;5115970;28;20202;-72
2024/01/13 02:03:18;;;;;;;71.60;32.65;;;;;;;;;;5115573;28;20685;-72
2024/01/13 02:05:44;;;;;;;74.18;33.80;;;;;;;;;;5115945;28;20456;-72
2024/01/13 02:08:11;;;;;;;71.80;33.67;;;;;;;;;;5115332;28;20671;-72
2024/01/13 02:10:37;;;;;;;74.00;33.65;;;;;;;;;;5115751;28;20222;-72
2024/01/13 02:13:04;;;;;;;69.68;32.13;;;;;;;;;;5115306;28;20248;-72
2024/01/13 02:15:30;;;;;;;70.55;32.50;;;;;;;;;;5107244;28;20264;-72
2024/01/13 02:17:56;;;;;;;68.05;31.42;;;;;;;;;;5115345;28;20195;-72
2024/01/13 02:20:24;;;;;;;75.25;32.30;;;;;;;;;;5115322;28;20248;-72
2024/01/13 02:22:52;;;;;;;70.40;31.30;;;;;;;;;;5115434;28;20206;-72
2024/01/13 02:25:18;;;;;;;69.72;32.53;;;;;;;;;;5115193;27;20222;-72
2024/01/13 02:27:45;;;;;;;75.00;33.22;;;;;;;;;;5115216;28;20286;-72
2024/01/13 02:30:11;;;;;;;72.18;33.15;;;;;;;;;;5114966;28;20223;-72
2024/01/13 02:32:38;;;;;;;79.80;36.15;;;;;;;;;;5115010;28;20248;-72
2024/01/13 02:35:04;;;;;;;80.28;36.22;;;;;;;;;;5115174;28;20206;-72
2024/01/13 02:37:30;;;;;;;77.40;34.78;;;;;;;;;;5115048;28;20192;-72
2024/01/13 02:39:58;;;;;;;76.72;35.13;;;;;;;;;;5115075;28;20276;-72
2024/01/13 02:42:24;;;;;;;75.45;33.80;;;;;;;;;;5114759;28;20244;-72
2024/01/13 02:44:51;;;;;;;78.15;34.78;;;;;;;;;;5114760;28;20672;-72
2024/01/13 02:47:17;;;;;;;74.65;34.55;;;;;;;;;;5114543;28;20643;-72
2024/01/13 02:49:43;;;;;;;79.47;33.20;;;;;;;;;;5115210;27;20199;-72
2024/01/13 02:52:09;;;;;;;76.15;33.53;;;;;;;;;;5114682;27;20252;-72
2024/01/13 02:54:35;;;;;;;78.97;36.25;;;;;;;;;;5115081;28;20203;-72
2024/01/13 02:57:03;;;;;;;80.07;34.75;;;;;;;;;;5114600;27;20227;-72
2024/01/13 02:59:29;;;;;;;73.13;34.22;;;;;;;;;;5114835;28;20240;-72
2024/01/13 03:01:56;;;;;;;81.10;35.42;;;;;;;;;;5114502;28;20203;-72
2024/01/13 03:04:22;;;;;;;79.35;34.65;;;;;;;;;;5113405;28;20278;-72
2024/01/13 03:06:48;;;;;;;81.63;35.47;;;;;;;;;;5114519;28;20222;-72
2024/01/13 03:09:15;;;;;;;84.60;35.50;;;;;;;;;;5114200;28;20199;-72
2024/01/13 03:11:41;;;;;;;82.47;34.10;;;;;;;;;;5114289;28;20221;-72
2024/01/13 03:14:09;;;;;;;84.32;35.15;;;;;;;;;;5114345;28;20210;-72
2024/01/13 03:16:35;;;;;;;79.63;34.15;;;;;;;;;;5105658;28;20276;-72
2024/01/13 03:19:01;;;;;;;81.93;35.53;;;;;;;;;;5114492;28;20207;-72
2024/01/13 03:21:27;;;;;;;81.30;34.97;;;;;;;;;;5114246;27;20195;-72
2024/01/13 03:23:54;;;;;;;82.65;36.13;;;;;;;;;;5114252;28;20256;-72
2024/01/13 03:26:20;;;;;;;79.18;34.90;;;;;;;;;;5113799;28;20276;-72
2024/01/13 03:28:46;;;;;;;75.07;33.78;;;;;;;;;;5114179;27;20199;-72
2024/01/13 03:31:14;;;;;;;73.35;33.85;;;;;;;;;;5113405;28;20271;-72
2024/01/13 03:33:40;;;;;;;80.82;34.72;;;;;;;;;;5114051;28;20203;-72
2024/01/13 03:36:08;;;;;;;73.93;33.15;;;;;;;;;;5113897;28;20385;-72
2024/01/13 03:38:34;;;;;;;72.53;33.83;;;;;;;;;;5113791;28;20236;-72
2024/01/13 03:41:00;;;;;;;84.03;34.80;;;;;;;;;;5113625;28;20195;-72
2024/01/13 03:43:26;;;;;;;75.60;34.08;;;;;;;;;;5113440;28;20206;-72
2024/01/13 03:45:53;;;;;;;83.88;35.95;;;;;;;;;;5113999;28;20276;-72
2024/01/13 03:48:20;;;;;;;77.13;33.28;;;;;;;;;;5113935;28;20199;-72
2024/01/13 03:50:46;;;;;;;77.90;32.75;;;;;;;;;;5113871;28;20214;-72
2024/01/13 03:53:13;;;;;;;76.43;33.60;;;;;;;;;;5113845;28;20248;-71
2024/01/13 03:55:39;;;;;;;75.70;33.60;;;;;;;;;;5113367;28;20227;-72
2024/01/13 03:58:06;;;;;;;73.18;32.97;;;;;;;;;;5113484;28;20195;-72
2024/01/13 04:00:34;;;;;;;83.97;36.45;;;;;;;;;;5113415;28;20252;-72
2024/01/13 04:03:01;;;;;;;75.93;34.22;;;;;;;;;;5113449;28;20245;-72
2024/01/13 04:05:29;;;;;;;81.72;34.10;;;;;;;;;;5113358;27;20215;-72
2024/01/13 04:07:55;;;;;;;74.55;33.35;;;;;;;;;;5113312;28;20195;-72
2024/01/13 04:10:22;;;;;;;77.07;33.30;;;;;;;;;;5113377;28;20202;-72
2024/01/13 04:12:48;;;;;;;77.88;32.95;;;;;;;;;;5112946;28;20195;-72
2024/01/13 04:15:14;;;;;;;73.80;32.58;;;;;;;;;;5113057;28;20223;-72
2024/01/13 04:17:40;;;;;;;71.03;32.45;;;;;;;;;;5113164;28;20191;-72
2024/01/13 04:20:07;;;;;;;80.65;34.63;;;;;;;;;;5112976;28;20611;-72
2024/01/13 04:22:35;;;;;;;80.47;33.80;;;;;;;;;;5112948;28;20195;-72
2024/01/13 04:25:01;;;;;;;75.07;32.03;;;;;;;;;;5113053;28;20202;-72
2024/01/13 04:27:27;;;;;;;79.60;33.20;;;;;;;;;;5112663;28;20202;-72
2024/01/13 04:29:54;;;;;;;75.47;32.30;;;;;;;;;;5113241;28;20213;-72
2024/01/13 04:32:20;;;;;;;71.57;31.95;;;;;;;;;;5112854;28;20215;-72
2024/01/13 04:34:46;;;;;;;75.80;33.45;;;;;;;;;;5112895;28;20686;-72
2024/01/13 04:37:12;;;;;;;76.28;34.20;;;;;;;;;;5112633;28;20244;-72
2024/01/13 04:39:40;;;;;;;75.15;33.90;;;;;;;;;;5112741;28;20252;-72
2024/01/13 04:42:06;;;;;;;85.25;34.88;;;;;;;;;;5112783;28;20195;-72
2024/01/13 04:44:33;;;;;;;75.38;33.75;;;;;;;;;;5112946;28;20230;-72
2024/01/13 04:46:59;;;;;;;77.78;34.65;;;;;;;;;;5112463;27;20714;-72
2024/01/13 04:49:25;;;;;;;76.22;32.65;;;;;;;;;;5112701;28;20256;-72
2024/01/13 04:51:51;;;;;;;78.25;34.40;;;;;;;;;;5112627;27;20230;-72
2024/01/13 04:54:18;;;;;;;72.32;31.88;;;;;;;;;;5112521;28;20195;-72
2024/01/13 04:56:46;;;;;;;78.22;32.80;;;;;;;;;;5112585;28;20218;-72
2024/01/13 04:59:12;;;;;;;78.30;33.55;;;;;;;;;;5112692;28;20202;-72
2024/01/13 05:01:38;;;;;;;78.10;33.13;;;;;;;;;;5112375;28;20207;-72
2024/01/13 05:04:04;;;;;;;78.22;32.75;;;;;;;;;;5112731;28;20248;-72
2024/01/13 05:06:31;;;;;;;82.72;35.45;;;;;;;;;;5112163;28;20226;-72
2024/01/13 05:08:59;;;;;;;81.85;34.63;;;;;;;;;;5112202;28;20659;-72
2024/01/13 05:11:25;;;;;;;83.93;34.05;;;;;;;;;;5111778;28;20603;-72
2024/01/13 05:13:52;;;;;;;84.28;34.75;;;;;;;;;;5112416;28;20199;-72
2024/01/13 05:16:19;;;;;;;80.53;34.20;;;;;;;;;;5111869;28;20215;-72
2024/01/13 05:18:45;;;;;;;88.72;37.53;;;;;;;;;;5112413;28;20199;-73
2024/01/13 05:21:11;;;;;;;89.43;35.97;;;;;;;;;;5112253;28;20198;-73
2024/01/13 05:23:37;;;;;;;109.78;41.92;;;;;;;;;;5111948;28;20200;-73
2024/01/13 05:26:04;;;;;;;93.55;37.75;;;;;;;;;;5111689;28;20218;-73
2024/01/13 05:28:30;;;;;;;91.45;35.88;;;;;;;;;;5111718;28;20195;-73
2024/01/13 05:30:58;;;;;;;89.95;35.80;;;;;;;;;;5111827;28;20221;-73
2024/01/13 05:33:24;;;;;;;84.90;35.47;;;;;;;;;;5112005;28;20260;-73
2024/01/13 05:35:50;;;;;;;78.45;33.47;;;;;;;;;;5111970;28;20214;-73
2024/01/13 05:38:17;;;;;;;71.97;29.42;;;;;;;;;;5112090;28;20199;-73
2024/01/13 05:40:44;;;;;;;71.32;31.02;;;;;;;;;;5111984;28;20198;-73
2024/01/13 05:43:10;;;;;;;74.95;30.08;;;;;;;;;;5111770;28;20240;-73
2024/01/13 05:45:36;;;;;;;68.95;30.23;;;;;;;;;;5111669;28;20219;-73
2024/01/13 05:48:04;;;;;;;70.10;31.80;;;;;;;;;;5111830;28;20744;-73
2024/01/13 05:50:30;;;;;;;81.15;32.53;;;;;;;;;;5111739;28;20256;-73
2024/01/13 05:52:57;;;;;;;80.18;32.42;;;;;;;;;;5111749;28;20215;-73
2024/01/13 05:55:22;;;;;;;76.20;31.25;;;;;;;;;;5112119;28;20302;-73
2024/01/13 05:57:49;;;;;;;69.57;28.35;;;;;;;;;;5111230;28;20278;-73
2024/01/13 06:00:15;;;;;;;63.22;27.13;;;;;;;;;;5111777;28;20200;-73
2024/01/13 06:02:43;;;;;;;58.40;24.95;;;;;;;;;;5112801;28;20210;-73
2024/01/13 06:05:11;;;;;;;63.28;26.83;;;;;;;;;;5114090;28;20335;-73
2024/01/13 06:07:37;;;;;;;60.60;26.65;;;;;;;;;;5118625;28;20256;-73
2024/01/13 06:10:04;;;;;;;61.03;26.45;;;;;;;;;;5125579;28;20195;-73
2024/01/13 06:12:30;;;;;;;63.85;26.73;;;;;;;;;;5127985;28;20295;-73
2024/01/13 06:14:57;;;;;;;65.78;27.33;;;;;;;;;;5129977;28;20245;-73
2024/01/13 06:17:23;;;;;;;64.30;27.17;;;;;;;;;;5127543;28;20203;-73
2024/01/13 06:19:49;;;;;;;66.63;27.00;;;;;;;;;;5126720;28;20195;-73
2024/01/13 06:22:17;;;;;;;58.42;26.33;;;;;;;;;;5123185;28;20236;-73
2024/01/13 06:24:43;;;;;;;57.60;26.17;;;;;;;;;;5117437;28;20206;-73
2024/01/13 06:27:09;;;;;;;64.05;26.55;;;;;;;;;;5122111;28;20248;-73
2024/01/13 06:29:35;;;;;;;60.72;26.88;;;;;;;;;;5123106;28;20569;-73
2024/01/13 06:32:02;;;;;;;62.25;26.27;;;;;;;;;;5112067;28;20218;-73
2024/01/13 06:34:28;;;;;;;64.53;27.23;;;;;;;;;;5114975;28;20410;-73
2024/01/13 06:36:54;;;;;;;63.05;26.83;;;;;;;;;;5110240;28;20211;-73
2024/01/13 06:39:22;;;;;;;72.15;28.05;;;;;;;;;;5117617;28;20663;-73
2024/01/13 06:41:48;;;;;;;66.10;26.80;;;;;;;;;;5116103;28;20546;-73
2024/01/13 06:44:14;;;;;;;71.30;28.13;;;;;;;;;;5116036;27;20640;-73
2024/01/13 06:46:41;;;;;;;57.55;26.85;;;;;;;;;;5116720;28;20517;-73
2024/01/13 06:49:07;;;;;;;64.97;28.05;;;;;;;;;;5117103;27;20327;-73
2024/01/13 06:51:33;;;;;;;63.80;28.42;;;;;;;;;;5116709;28;20662;-68
2024/01/13 06:53:59;;;;;;;64.82;29.05;;;;;;;;;;5115227;28;20195;-61
2024/01/13 06:56:27;;;;;;;65.22;27.15;;;;;;;;;;5114433;28;20215;-60
2024/01/13 06:58:53;;;;;;;62.63;26.60;;;;;;;;;;5114465;28;20195;-61
2024/01/13 07:01:19;;;;;;;66.03;29.35;;;;;;;;;;5114509;27;20203;-61
2024/01/13 07:03:46;;;;;;;64.45;27.13;;;;;;;;;;5114590;28;20199;-61
2024/01/13 07:06:13;;;;;;;70.72;28.45;;;;;;;;;;5114491;28;20246;-61
2024/01/13 07:08:39;;;;;;;62.45;25.60;;;;;;;;;;5114265;28;20667;-61
2024/01/13 07:11:11;;;;;;;54.38;25.08;;;;;;;;;;5114215;28;20617;-61
2024/01/13 07:13:39;;;;;;;63.30;28.02;;;;;;;;;;5114246;28;20219;-60
2024/01/13 07:16:05;;;;;;;64.75;28.52;;;;;;;;;;5113967;28;20646;-60
2024/01/13 07:18:31;;;;;;;73.00;29.08;;;;;;;;;;5114170;28;20195;-61
2024/01/13 07:20:57;;;;;;;69.75;29.10;;;;;;;;;;5114395;27;20195;-61
2024/01/13 07:23:24;;;;;;;66.88;30.33;;;;;;;;;;5114389;28;20230;-61
2024/01/13 07:25:50;;;;;;;67.28;29.10;;;;;;;;;;5113770;28;20271;-60
2024/01/13 07:28:16;;;;;;;72.05;30.73;;;;;;;;;;5113837;27;20240;-60
2024/01/13 07:30:44;;;;;;;71.03;29.80;;;;;;;;;;5113625;28;20203;-61
2024/01/13 07:33:10;;;;;;;69.88;30.67;;;;;;;;;;5113878;28;20268;-60
2024/01/13 07:35:36;;;;;;;62.58;27.63;;;;;;;;;;5113732;28;20219;-60
2024/01/13 07:38:02;;;;;;;73.90;30.88;;;;;;;;;;5113500;28;20713;-60
2024/01/13 07:40:29;;;;;;;78.38;33.63;;;;;;;;;;5113811;28;20198;-60
2024/01/13 07:42:55;;;;;;;81.70;33.95;;;;;;;;;;5113356;28;20256;-60
2024/01/13 07:45:21;;;;;;;94.47;39.78;;;;;;;;;;5113439;28;20329;-60
2024/01/13 07:47:49;;;;;;;97.20;40.95;;;;;;;;;;5113638;28;20252;-60
2024/01/13 07:50:16;;;;;;;101.25;40.75;;;;;;;;;;5113251;28;20195;-60
2024/01/13 07:52:42;;;;;;;99.82;41.05;;;;;;;;;;5113271;28;20264;-60
2024/01/13 07:55:08;;;;;;;91.03;39.60;;;;;;;;;;5113481;28;20191;-60
2024/01/13 07:57:35;;;;;;;96.70;40.97;;;;;;;;;;5113250;28;20203;-60
2024/01/13 08:00:01;;;;;;;96.68;40.55;;;;;;;;;;5113151;28;20199;-60
2024/01/13 08:02:27;;;;;;;91.40;39.25;;;;;;;;;;5113136;28;20199;-60
2024/01/13 08:04:55;;;;;;;92.80;39.83;;;;;;;;;;5113221;28;20199;-60
2024/01/13 08:07:23;;;;;;;163.38;57.50;;;;;;;;;;5113266;28;20267;-60
2024/01/13 08:09:49;;;;;;;147.80;58.08;;;;;;;;;;5113135;28;20244;-60
2024/01/13 08:12:15;;;;;;;92.65;39.40;;;;;;;;;;5112777;28;20272;-61
2024/01/13 08:14:42;;;;;;;87.53;36.45;;;;;;;;;;5113147;28;20207;-61
2024/01/13 08:17:08;;;;;;;107.07;45.17;;;;;;;;;;5113206;28;20211;-60
2024/01/13 08:19:35;;;;;;;78.43;35.80;;;;;;;;;;5113041;28;20712;-60
2024/01/13 08:22:02;;;;;;;78.82;33.33;;;;;;;;;;5112881;28;20199;-61
2024/01/13 08:24:29;;;;;;;73.07;32.38;;;;;;;;;;5112991;28;20195;-60
2024/01/13 08:26:55;;;;;;;77.63;34.20;;;;;;;;;;5112295;28;20318;-60
2024/01/13 08:29:22;;;;;;;82.38;34.42;;;;;;;;;;5112923;28;20230;-60
2024/01/13 08:31:50;;;;;;;72.95;31.92;;;;;;;;;;5112466;28;20273;-60
2024/01/13 08:34:16;;;;;;;67.15;30.52;;;;;;;;;;5112623;28;20248;-60
2024/01/13 08:36:42;;;;;;;68.22;28.85;;;;;;;;;;5112570;28;20268;-60
2024/01/13 08:39:10;;;;;;;62.72;29.08;;;;;;;;;;5112547;28;20191;-60
2024/01/13 08:41:36;;;;;;;66.55;28.30;;;;;;;;;;5112486;28;20294;-60
2024/01/13 08:44:03;;;;;;;76.53;30.23;;;;;;;;;;5112627;28;20228;-60
2024/01/13 08:46:29;;;;;;;72.75;32.60;;;;;;;;;;5112578;28;20219;-60
2024/01/13 08:48:56;;;;;;;66.55;28.73;;;;;;;;;;5112515;28;20199;-60
2024/01/13 08:51:22;;;;;;;74.78;30.48;;;;;;;;;;5112300;28;20659;-61
2024/01/13 08:53:48;;;;;;;74.28;31.60;;;;;;;;;;5112340;28;20214;-63
2024/01/13 08:56:16;;;;;;;64.80;29.75;;;;;;;;;;5112344;28;20233;-62
2024/01/13 08:58:42;;;;;;;62.58;28.55;;;;;;;;;;5112254;28;20203;-60
2024/01/13 09:01:08;;;;;;;104.65;41.35;;;;;;;;;;5111493;28;20199;-60
2024/01/13 09:03:35;;;;;;;73.70;35.20;;;;;;;;;;5112232;28;20195;-60
2024/01/13 09:06:01;;;;;;;69.13;30.25;;;;;;;;;;5112092;28;20227;-62
2024/01/13 09:08:27;;;;;;;80.40;33.25;;;;;;;;;;5112173;28;20202;-60
2024/01/13 09:10:53;;;;;;;77.43;34.50;;;;;;;;;;5112162;28;20203;-62
2024/01/13 09:13:21;;;;;;;79.07;33.92;;;;;;;;;;5112278;28;20302;-60
2024/01/13 09:15:48;;;;;;;80.35;33.78;;;;;;;;;;5111774;28;20284;-60
2024/01/13 09:18:14;;;;;;;71.63;32.67;;;;;;;;;;5111741;28;20644;-60
2024/01/13 09:20:40;;;;;;;66.85;29.67;;;;;;;;;;5111987;28;20248;-60
2024/01/13 09:23:06;;;;;;;59.95;27.45;;;;;;;;;;5111697;28;20342;-60
2024/01/13 09:25:32;;;;;;;60.55;27.77;;;;;;;;;;5111955;28;20276;-59
2024/01/13 09:27:59;;;;;;;63.45;30.20;;;;;;;;;;5111686;28;20236;-59
2024/01/13 09:30:26;;;;;;;63.83;28.73;;;;;;;;;;5111908;28;20195;-59
2024/01/13 09:32:52;;;;;;;70.25;32.58;;;;;;;;;;5111586;28;20223;-61
2024/01/13 09:35:19;;;;;;;72.35;31.23;;;;;;;;;;5111855;28;20219;-58
2024/01/13 09:37:45;;;;;;;71.32;31.60;;;;;;;;;;5111858;28;20203;-60
2024/01/13 09:40:13;;;;;;;80.95;33.03;;;;;;;;;;5103716;28;20614;-59
2024/01/13 09:42:50;;;;;;;75.22;32.40;;;;;;;;;;5112989;28;20203;-61
2024/01/13 09:45:18;;;;;;;70.97;31.67;;;;;;;;;;5105703;28;20657;-60
2024/01/13 09:47:46;;;;;;;80.00;33.75;;;;;;;;;;5111717;28;20209;-63
2024/01/13 09:50:13;;;;;;;76.35;33.42;;;;;;;;;;5099233;28;20265;-60
2024/01/13 09:52:40;;;;;;;72.47;31.38;;;;;;;;;;5108297;28;20300;-62
2024/01/13 09:55:08;;;;;;;72.78;32.15;;;;;;;;;;5102512;28;20207;-63
2024/01/13 09:57:35;;;;;;;68.75;32.13;;;;;;;;;;5105718;28;20203;-63
2024/01/13 10:00:03;;;;;;;72.82;32.10;;;;;;;;;;5104715;28;20214;-62
2024/01/13 10:02:29;;;;;;;72.20;31.92;;;;;;;;;;5109306;28;20195;-63
2024/01/13 10:04:56;;;;;;;76.40;32.78;;;;;;;;;;5115249;28;20286;-61
2024/01/13 10:07:23;;;;;;;75.03;32.65;;;;;;;;;;5114429;28;20256;-60
2024/01/13 10:09:49;;;;;;;78.10;32.38;;;;;;;;;;5115250;28;20252;-59
2024/01/13 10:12:15;;;;;;;71.60;30.25;;;;;;;;;;5115568;28;20202;-60
2024/01/13 10:14:43;;;;;;;65.38;28.27;;;;;;;;;;5119105;28;20618;-59
2024/01/13 10:17:09;;;;;;;67.00;29.38;;;;;;;;;;5113147;27;20272;-61
2024/01/13 10:19:37;;;;;;;64.47;26.83;;;;;;;;;;5113399;27;20256;-60
2024/01/13 10:22:05;;;;;;;64.47;28.35;;;;;;;;;;5113272;28;20423;-61
2024/01/13 10:24:31;;;;;;;82.32;35.10;;;;;;;;;;5113186;28;20191;-59
2024/01/13 10:26:58;;;;;;;71.57;29.95;;;;;;;;;;5112918;28;20839;-60
2024/01/13 10:29:24;;;;;;;62.72;29.67;;;;;;;;;;5113298;28;20228;-59
2024/01/13 10:31:51;;;;;;;66.65;28.92;;;;;;;;;;5114247;27;20199;-60
2024/01/13 10:34:18;;;;;;;99.13;39.35;;;;;;;;;;5106932;28;20317;-60
2024/01/13 10:36:44;;;;;;;71.13;30.52;;;;;;;;;;5115032;28;20703;-59
2024/01/13 10:39:11;;;;;;;77.95;33.40;;;;;;;;;;5115062;28;20202;-60
2024/01/13 10:41:38;;;;;;;59.90;27.45;;;;;;;;;;5114955;28;20203;-60
2024/01/13 10:44:07;;;;;;;57.10;25.80;;;;;;;;;;5114737;28;20611;-59
2024/01/13 10:46:34;;;;;;;60.40;27.48;;;;;;;;;;5114566;28;20222;-61
2024/01/13 10:49:03;;;;;;;57.28;26.45;;;;;;;;;;5114901;28;20248;-61
2024/01/13 10:51:32;;;;;;;60.88;26.00;;;;;;;;;;5114604;28;20191;-61
2024/01/13 10:53:59;;;;;;;60.45;25.48;;;;;;;;;;5114645;28;20219;-61
2024/01/13 10:56:28;;;;;;;59.92;29.50;;;;;;;;;;5114427;28;20279;-61
2024/01/13 10:58:55;;;;;;;70.15;29.70;;;;;;;;;;5114335;28;20199;-61
2024/01/13 11:01:21;;;;;;;67.32;31.30;;;;;;;;;;5114289;28;20256;-61
2024/01/13 11:03:48;;;;;;;67.45;31.52;;;;;;;;;;5114539;27;20615;-60
2024/01/13 11:06:15;;;;;;;80.18;33.70;;;;;;;;;;5114183;28;20258;-60
2024/01/13 11:08:42;;;;;;;79.47;34.33;;;;;;;;;;5114492;27;20206;-60
2024/01/13 11:11:09;;;;;;;77.82;33.83;;;;;;;;;;5114011;28;20744;-60
2024/01/13 11:13:39;;;;;;;74.25;33.20;;;;;;;;;;5114233;27;20223;-60
2024/01/13 11:16:07;;;;;;;73.20;33.13;;;;;;;;;;5113957;28;20717;-60
2024/01/13 11:18:37;;;;;;;73.00;33.80;;;;;;;;;;5113907;28;20656;-60
2024/01/13 11:21:04;;;;;;;81.43;36.05;;;;;;;;;;5113923;28;20248;-60
2024/01/13 11:23:37;;;;;;;84.45;34.85;;;;;;;;;;5113801;28;20195;-60
2024/01/13 11:26:03;;;;;;;79.22;33.78;;;;;;;;;;5113021;28;20306;-60
2024/01/13 11:28:43;;;;;;;74.57;32.90;;;;;;;;;;5114125;28;20267;-60
2024/01/13 11:31:11;;;;;;;76.05;33.80;;;;;;;;;;5113619;28;20671;-60
2024/01/13 11:33:38;;;;;;;74.60;32.28;;;;;;;;;;5114039;28;20234;-60
2024/01/13 11:36:05;;;;;;;80.72;34.33;;;;;;;;;;5113902;28;20268;-61
2024/01/13 11:38:32;;;;;;;70.75;31.88;;;;;;;;;;5113757;28;20234;-61
2024/01/13 11:40:59;;;;;;;79.53;33.75;;;;;;;;;;5114575;28;20218;-61
2024/01/13 11:43:27;;;;;;;78.90;36.10;;;;;;;;;;5113921;28;20543;-61
2024/01/13 11:45:54;;;;;;;82.72;35.97;;;;;;;;;;5113685;28;20227;-61
2024/01/13 11:48:36;;;;;;;75.55;34.20;;;;;;;;;;5113523;28;20203;-60
2024/01/13 11:51:08;;;;;;;83.50;35.85;;;;;;;;;;5113358;28;20205;-60
2024/01/13 11:53:35;;;;;;;92.47;38.90;;;;;;;;;;5113663;28;20215;-60
2024/01/13 11:56:02;;;;;;;84.70;37.33;;;;;;;;;;5113634;28;20276;-60
2024/01/13 11:58:29;;;;;;;92.25;36.75;;;;;;;;;;5113626;28;20191;-60
2024/01/13 12:00:57;;;;;;;85.00;36.75;;;;;;;;;;5113533;27;20252;-61
2024/01/13 12:03:23;;;;;;;97.80;38.08;;;;;;;;;;5113432;28;20237;-60
2024/01/13 12:05:51;;;;;;;92.15;39.67;;;;;;;;;;5113314;28;20799;-60
2024/01/13 12:08:17;;;;;;;88.00;39.28;;;;;;;;;;5113353;28;20203;-59
2024/01/13 12:10:43;;;;;;;87.38;37.38;;;;;;;;;;5113683;28;20198;-61
2024/01/13 12:13:15;;;;;;;79.18;34.33;;;;;;;;;;5113156;28;20203;-60
2024/01/13 12:15:45;;;;;;;77.55;34.83;;;;;;;;;;5113452;28;20215;-60
2024/01/13 12:18:17;;;;;;;80.68;35.60;;;;;;;;;;5113462;28;20203;-60
2024/01/13 12:20:43;;;;;;;86.93;36.90;;;;;;;;;;5113437;28;20199;-61
2024/01/13 12:23:09;;;;;;;86.57;37.25;;;;;;;;;;5112963;28;20194;-59
2024/01/13 12:25:35;;;;;;;82.57;36.42;;;;;;;;;;5113003;28;20223;-60
2024/01/13 12:28:01;;;;;;;82.78;36.08;;;;;;;;;;5113329;28;20203;-59
2024/01/13 12:30:28;;;;;;;72.65;33.78;;;;;;;;;;5104722;28;20260;-59
2024/01/13 12:32:55;;;;;;;77.10;35.40;;;;;;;;;;5112787;28;20202;-60
2024/01/13 12:35:26;;;;;;;79.50;35.15;;;;;;;;;;5112694;28;20219;-61
2024/01/13 12:37:53;;;;;;;81.28;35.22;;;;;;;;;;5112636;28;20605;-61
2024/01/13 12:40:19;;;;;;;77.35;34.05;;;;;;;;;;5112750;28;20233;-60
2024/01/13 12:42:46;;;;;;;78.60;34.03;;;;;;;;;;5112632;28;20290;-59
2024/01/13 12:45:14;;;;;;;73.07;33.25;;;;;;;;;;5112462;28;20305;-60
2024/01/13 12:47:40;;;;;;;71.93;32.13;;;;;;;;;;5112747;27;20206;-60
2024/01/13 12:50:07;;;;;;;76.60;33.72;;;;;;;;;;5112561;28;20248;-59
2024/01/13 12:52:38;;;;;;;67.75;31.05;;;;;;;;;;5112535;28;20201;-60
2024/01/13 12:55:04;;;;;;;70.35;30.42;;;;;;;;;;5112497;28;20276;-59
2024/01/13 12:57:30;;;;;;;81.03;36.78;;;;;;;;;;5104248;28;20244;-59
2024/01/13 12:59:57;;;;;;;62.67;28.67;;;;;;;;;;5112398;28;20203;-59
2024/01/13 13:02:24;;;;;;;64.47;29.25;;;;;;;;;;5112234;28;20209;-59
2024/01/13 13:04:50;;;;;;;61.72;27.67;;;;;;;;;;5112433;28;20195;-59
2024/01/13 13:07:19;;;;;;;56.13;26.70;;;;;;;;;;5112199;28;20203;-59
2024/01/13 13:09:47;;;;;;;61.92;29.10;;;;;;;;;;5112223;28;20210;-59
2024/01/13 13:12:14;;;;;;;64.70;29.30;;;;;;;;;;5112077;28;20195;-60
2024/01/13 13:14:40;;;;;;;61.67;29.23;;;;;;;;;;5112292;28;20762;-60
2024/01/13 13:17:08;;;;;;;59.40;27.10;;;;;;;;;;5111959;28;20714;-60
2024/01/13 13:19:34;;;;;;;56.58;26.80;;;;;;;;;;5112179;28;20195;-60
2024/01/13 13:22:00;;;;;;;55.35;27.25;;;;;;;;;;5112254;28;20252;-60
2024/01/13 13:24:27;;;;;;;65.03;28.40;;;;;;;;;;5112094;28;20593;-60
2024/01/13 13:26:54;;;;;;;58.70;27.58;;;;;;;;;;5111771;28;20301;-59
2024/01/13 13:29:21;;;;;;;56.28;28.27;;;;;;;;;;5112168;28;20203;-60
2024/01/13 13:31:47;;;;;;;59.55;27.08;;;;;;;;;;5111986;28;20195;-60
2024/01/13 13:34:13;;;;;;;62.80;28.10;;;;;;;;;;5111785;28;20215;-60
2024/01/13 13:36:40;;;;;;;58.13;25.65;;;;;;;;;;5111948;28;20227;-59
2024/01/13 13:39:06;;;;;;;62.00;28.35;;;;;;;;;;5112398;28;20203;-59
2024/01/13 13:41:32;;;;;;;63.67;28.33;;;;;;;;;;5111632;28;20240;-59
2024/01/13 13:44:00;;;;;;;55.53;27.38;;;;;;;;;;5112428;28;20401;-61
2024/01/13 13:46:27;;;;;;;54.30;26.63;;;;;;;;;;5111715;28;20227;-60
2024/01/13 13:48:53;;;;;;;57.75;26.58;;;;;;;;;;5115031;28;20319;-61
2024/01/13 13:51:19;;;;;;;49.78;24.10;;;;;;;;;;5116002;28;20206;-61
2024/01/13 13:53:45;;;;;;;51.13;24.02;;;;;;;;;;5116167;28;20268;-61
2024/01/13 13:56:12;;;;;;;51.28;25.58;;;;;;;;;;5115840;28;20252;-61
2024/01/13 13:58:38;;;;;;;52.78;25.70;;;;;;;;;;5116208;28;20638;-60
2024/01/13 14:01:06;;;;;;;52.40;25.48;;;;;;;;;;5115803;28;20667;-59
2024/01/13 14:03:32;;;;;;;59.58;27.60;;;;;;;;;;5115847;28;20195;-60
2024/01/13 14:05:59;;;;;;;51.58;25.85;;;;;;;;;;5115910;28;20218;-61
2024/01/13 14:08:26;;;;;;;52.53;26.25;;;;;;;;;;5115525;28;20685;-61
2024/01/13 14:10:53;;;;;;;53.17;24.95;;;;;;;;;;5115929;28;20199;-61
2024/01/13 14:13:19;;;;;;;51.78;26.23;;;;;;;;;;5115688;28;20267;-61